sensor_id;sensor_type;location;lat;lon;timestamp;P1;durP1;ratioP1;P2;durP2;ratioP2
77191;SDS011;66172;48.526;8.078;2023-07-24T00:01:34;10.93;;;4.82;;
77191;SDS011;66172;48.526;8.078;2023-07-24T00:03:59;10.60;;;4.70;;
77191;SDS011;66172;48.526;8.078;2023-07-24T00:06:25;10.70;;;4.40;;
77191;SDS011;66172;48.526;8.078;2023-07-24T00:08:51;10.20;;;5.00;;
77191;SDS011;66172;48.526;8.078;2023-07-24T00:11:17;11.93;;;4.90;;
77191;SDS011;66172;48.526;8.078;2023-07-24T00:13:44;12.00;;;4.90;;
77191;SDS011;66172;48.526;8.078;2023-07-24T00:16:10;11.73;;;5.13;;
77191;SDS011;66172;48.526;8.078;2023-07-24T00:18:36;10.98;;;4.78;;
77191;SDS011;66172;48.526;8.078;2023-07-24T00:21:02;11.23;;;4.50;;
77191;SDS011;66172;48.526;8.078;2023-07-24T00:23:28;10.82;;;4.57;;
77191;SDS011;66172;48.526;8.078;2023-07-24T00:25:54;11.90;;;5.15;;
77191;SDS011;66172;48.526;8.078;2023-07-24T00:28:20;12.38;;;4.68;;
77191;SDS011;66172;48.526;8.078;2023-07-24T00:30:46;13.30;;;4.80;;
77191;SDS011;66172;48.526;8.078;2023-07-24T00:33:12;10.02;;;4.47;;
77191;SDS011;66172;48.526;8.078;2023-07-24T00:35:37;11.43;;;4.75;;
77191;SDS011;66172;48.526;8.078;2023-07-24T00:38:03;12.23;;;4.93;;
77191;SDS011;66172;48.526;8.078;2023-07-24T00:40:29;11.27;;;4.68;;
77191;SDS011;66172;48.526;8.078;2023-07-24T00:42:55;10.63;;;4.70;;
77191;SDS011;66172;48.526;8.078;2023-07-24T00:45:21;9.73;;;4.43;;
77191;SDS011;66172;48.526;8.078;2023-07-24T00:47:48;11.23;;;4.80;;
77191;SDS011;66172;48.526;8.078;2023-07-24T00:50:14;12.05;;;4.95;;
77191;SDS011;66172;48.526;8.078;2023-07-24T00:52:40;10.80;;;4.50;;
77191;SDS011;66172;48.526;8.078;2023-07-24T00:55:08;10.50;;;4.40;;
77191;SDS011;66172;48.526;8.078;2023-07-24T00:57:36;11.90;;;4.93;;
77191;SDS011;66172;48.526;8.078;2023-07-24T01:00:02;11.90;;;4.90;;
77191;SDS011;66172;48.526;8.078;2023-07-24T01:02:29;10.82;;;4.88;;
77191;SDS011;66172;48.526;8.078;2023-07-24T01:04:56;10.93;;;4.78;;
77191;SDS011;66172;48.526;8.078;2023-07-24T01:07:22;11.02;;;4.72;;
77191;SDS011;66172;48.526;8.078;2023-07-24T01:09:48;11.17;;;4.80;;
77191;SDS011;66172;48.526;8.078;2023-07-24T01:12:17;12.07;;;4.68;;
77191;SDS011;66172;48.526;8.078;2023-07-24T01:15:10;11.68;;;5.20;;
77191;SDS011;66172;48.526;8.078;2023-07-24T01:17:39;10.50;;;4.85;;
77191;SDS011;66172;48.526;8.078;2023-07-24T01:20:10;10.40;;;4.13;;
77191;SDS011;66172;48.526;8.078;2023-07-24T01:22:39;12.93;;;4.72;;
77191;SDS011;66172;48.526;8.078;2023-07-24T01:25:27;11.20;;;4.57;;
77191;SDS011;66172;48.526;8.078;2023-07-24T01:27:58;10.98;;;4.70;;
77191;SDS011;66172;48.526;8.078;2023-07-24T01:30:24;10.30;;;4.68;;
77191;SDS011;66172;48.526;8.078;2023-07-24T01:32:49;10.97;;;4.77;;
77191;SDS011;66172;48.526;8.078;2023-07-24T01:35:15;10.13;;;4.72;;
77191;SDS011;66172;48.526;8.078;2023-07-24T01:37:42;11.75;;;4.78;;
77191;SDS011;66172;48.526;8.078;2023-07-24T01:40:10;12.43;;;5.10;;
77191;SDS011;66172;48.526;8.078;2023-07-24T01:42:37;11.73;;;5.00;;
77191;SDS011;66172;48.526;8.078;2023-07-24T01:45:04;11.43;;;4.90;;
77191;SDS011;66172;48.526;8.078;2023-07-24T01:47:30;12.55;;;5.32;;
77191;SDS011;66172;48.526;8.078;2023-07-24T01:49:56;10.65;;;4.95;;
77191;SDS011;66172;48.526;8.078;2023-07-24T01:52:22;11.57;;;5.23;;
77191;SDS011;66172;48.526;8.078;2023-07-24T01:54:48;12.05;;;4.90;;
77191;SDS011;66172;48.526;8.078;2023-07-24T01:57:14;11.50;;;4.85;;
77191;SDS011;66172;48.526;8.078;2023-07-24T01:59:39;13.53;;;5.13;;
77191;SDS011;66172;48.526;8.078;2023-07-24T02:02:05;11.05;;;5.05;;
77191;SDS011;66172;48.526;8.078;2023-07-24T02:04:31;11.38;;;5.07;;
77191;SDS011;66172;48.526;8.078;2023-07-24T02:06:57;11.27;;;5.10;;
77191;SDS011;66172;48.526;8.078;2023-07-24T02:09:23;11.00;;;4.80;;
77191;SDS011;66172;48.526;8.078;2023-07-24T02:11:49;11.23;;;5.00;;
77191;SDS011;66172;48.526;8.078;2023-07-24T02:14:18;11.70;;;5.10;;
77191;SDS011;66172;48.526;8.078;2023-07-24T02:16:46;13.20;;;5.40;;
77191;SDS011;66172;48.526;8.078;2023-07-24T02:19:12;11.30;;;4.67;;
77191;SDS011;66172;48.526;8.078;2023-07-24T02:21:38;12.43;;;4.93;;
77191;SDS011;66172;48.526;8.078;2023-07-24T02:24:04;11.57;;;4.68;;
77191;SDS011;66172;48.526;8.078;2023-07-24T02:26:29;10.30;;;4.60;;
77191;SDS011;66172;48.526;8.078;2023-07-24T02:28:55;9.90;;;4.72;;
77191;SDS011;66172;48.526;8.078;2023-07-24T02:31:21;12.05;;;5.07;;
77191;SDS011;66172;48.526;8.078;2023-07-24T02:33:47;10.40;;;4.43;;
77191;SDS011;66172;48.526;8.078;2023-07-24T02:36:14;14.17;;;5.33;;
77191;SDS011;66172;48.526;8.078;2023-07-24T02:38:40;12.38;;;4.60;;
77191;SDS011;66172;48.526;8.078;2023-07-24T02:41:06;12.57;;;5.00;;
77191;SDS011;66172;48.526;8.078;2023-07-24T02:43:32;12.43;;;4.97;;
77191;SDS011;66172;48.526;8.078;2023-07-24T02:46:01;11.93;;;5.17;;
77191;SDS011;66172;48.526;8.078;2023-07-24T02:48:28;12.25;;;5.00;;
77191;SDS011;66172;48.526;8.078;2023-07-24T02:50:54;13.18;;;5.18;;
77191;SDS011;66172;48.526;8.078;2023-07-24T02:53:20;10.75;;;5.45;;
77191;SDS011;66172;48.526;8.078;2023-07-24T02:55:46;12.57;;;5.07;;
77191;SDS011;66172;48.526;8.078;2023-07-24T02:58:12;13.07;;;5.10;;
77191;SDS011;66172;48.526;8.078;2023-07-24T03:00:39;10.13;;;4.90;;
77191;SDS011;66172;48.526;8.078;2023-07-24T03:03:05;12.65;;;5.13;;
77191;SDS011;66172;48.526;8.078;2023-07-24T03:05:31;12.32;;;5.63;;
77191;SDS011;66172;48.526;8.078;2023-07-24T03:07:59;12.70;;;5.00;;
77191;SDS011;66172;48.526;8.078;2023-07-24T03:10:25;11.05;;;5.00;;
77191;SDS011;66172;48.526;8.078;2023-07-24T03:12:51;11.60;;;5.10;;
77191;SDS011;66172;48.526;8.078;2023-07-24T03:15:17;12.38;;;4.70;;
77191;SDS011;66172;48.526;8.078;2023-07-24T03:17:42;12.93;;;5.17;;
77191;SDS011;66172;48.526;8.078;2023-07-24T03:20:09;10.88;;;5.45;;
77191;SDS011;66172;48.526;8.078;2023-07-24T03:22:42;11.55;;;5.10;;
77191;SDS011;66172;48.526;8.078;2023-07-24T03:25:09;10.88;;;4.70;;
77191;SDS011;66172;48.526;8.078;2023-07-24T03:27:35;13.40;;;5.30;;
77191;SDS011;66172;48.526;8.078;2023-07-24T03:30:01;10.52;;;4.80;;
77191;SDS011;66172;48.526;8.078;2023-07-24T03:32:28;11.27;;;4.80;;
77191;SDS011;66172;48.526;8.078;2023-07-24T03:34:54;12.48;;;5.40;;
77191;SDS011;66172;48.526;8.078;2023-07-24T03:37:19;12.57;;;5.20;;
77191;SDS011;66172;48.526;8.078;2023-07-24T03:39:45;10.98;;;4.95;;
77191;SDS011;66172;48.526;8.078;2023-07-24T03:42:11;11.65;;;5.30;;
77191;SDS011;66172;48.526;8.078;2023-07-24T03:44:39;12.48;;;5.07;;
77191;SDS011;66172;48.526;8.078;2023-07-24T03:47:06;12.33;;;5.43;;
77191;SDS011;66172;48.526;8.078;2023-07-24T03:49:32;11.75;;;4.97;;
77191;SDS011;66172;48.526;8.078;2023-07-24T03:51:58;11.10;;;4.95;;
77191;SDS011;66172;48.526;8.078;2023-07-24T03:54:24;12.18;;;5.18;;
77191;SDS011;66172;48.526;8.078;2023-07-24T03:56:50;12.10;;;4.97;;
77191;SDS011;66172;48.526;8.078;2023-07-24T03:59:16;11.02;;;4.75;;
77191;SDS011;66172;48.526;8.078;2023-07-24T04:01:42;13.48;;;5.28;;
77191;SDS011;66172;48.526;8.078;2023-07-24T04:04:08;11.35;;;5.10;;
77191;SDS011;66172;48.526;8.078;2023-07-24T04:06:34;12.13;;;5.20;;
77191;SDS011;66172;48.526;8.078;2023-07-24T04:09:00;11.23;;;5.13;;
77191;SDS011;66172;48.526;8.078;2023-07-24T04:11:26;11.20;;;5.07;;
77191;SDS011;66172;48.526;8.078;2023-07-24T04:13:52;11.55;;;4.90;;
77191;SDS011;66172;48.526;8.078;2023-07-24T04:16:18;11.93;;;5.20;;
77191;SDS011;66172;48.526;8.078;2023-07-24T04:18:43;12.15;;;5.10;;
77191;SDS011;66172;48.526;8.078;2023-07-24T04:21:09;11.85;;;4.53;;
77191;SDS011;66172;48.526;8.078;2023-07-24T04:23:35;11.27;;;4.70;;
77191;SDS011;66172;48.526;8.078;2023-07-24T04:26:01;13.50;;;5.53;;
77191;SDS011;66172;48.526;8.078;2023-07-24T04:28:27;14.85;;;5.70;;
77191;SDS011;66172;48.526;8.078;2023-07-24T04:30:53;11.27;;;4.73;;
77191;SDS011;66172;48.526;8.078;2023-07-24T04:33:19;11.30;;;5.35;;
77191;SDS011;66172;48.526;8.078;2023-07-24T04:35:47;12.85;;;5.65;;
77191;SDS011;66172;48.526;8.078;2023-07-24T04:38:14;12.82;;;5.65;;
77191;SDS011;66172;48.526;8.078;2023-07-24T04:40:43;12.07;;;5.20;;
77191;SDS011;66172;48.526;8.078;2023-07-24T04:43:09;12.75;;;5.40;;
77191;SDS011;66172;48.526;8.078;2023-07-24T04:45:35;12.30;;;5.03;;
77191;SDS011;66172;48.526;8.078;2023-07-24T04:48:01;14.05;;;5.50;;
77191;SDS011;66172;48.526;8.078;2023-07-24T04:50:27;11.40;;;5.00;;
77191;SDS011;66172;48.526;8.078;2023-07-24T04:52:53;11.52;;;5.07;;
77191;SDS011;66172;48.526;8.078;2023-07-24T04:55:19;12.45;;;4.80;;
77191;SDS011;66172;48.526;8.078;2023-07-24T04:57:44;11.57;;;5.13;;
77191;SDS011;66172;48.526;8.078;2023-07-24T05:00:10;12.50;;;5.55;;
77191;SDS011;66172;48.526;8.078;2023-07-24T05:02:37;12.77;;;4.88;;
77191;SDS011;66172;48.526;8.078;2023-07-24T05:05:02;12.75;;;4.97;;
77191;SDS011;66172;48.526;8.078;2023-07-24T05:07:28;12.60;;;4.87;;
77191;SDS011;66172;48.526;8.078;2023-07-24T05:09:54;12.02;;;5.10;;
77191;SDS011;66172;48.526;8.078;2023-07-24T05:12:20;12.85;;;4.72;;
77191;SDS011;66172;48.526;8.078;2023-07-24T05:14:46;11.53;;;5.47;;
77191;SDS011;66172;48.526;8.078;2023-07-24T05:17:12;11.25;;;5.10;;
77191;SDS011;66172;48.526;8.078;2023-07-24T05:19:38;11.65;;;5.13;;
77191;SDS011;66172;48.526;8.078;2023-07-24T05:22:04;11.35;;;4.85;;
77191;SDS011;66172;48.526;8.078;2023-07-24T05:24:30;11.67;;;5.20;;
77191;SDS011;66172;48.526;8.078;2023-07-24T05:26:56;11.38;;;5.30;;
77191;SDS011;66172;48.526;8.078;2023-07-24T05:29:21;11.98;;;5.50;;
77191;SDS011;66172;48.526;8.078;2023-07-24T05:31:47;11.83;;;5.17;;
77191;SDS011;66172;48.526;8.078;2023-07-24T05:34:13;10.90;;;5.20;;
77191;SDS011;66172;48.526;8.078;2023-07-24T05:36:40;12.18;;;5.75;;
77191;SDS011;66172;48.526;8.078;2023-07-24T05:39:06;12.18;;;5.50;;
77191;SDS011;66172;48.526;8.078;2023-07-24T05:41:32;13.27;;;5.60;;
77191;SDS011;66172;48.526;8.078;2023-07-24T05:43:58;10.88;;;4.88;;
77191;SDS011;66172;48.526;8.078;2023-07-24T05:46:24;13.50;;;5.50;;
77191;SDS011;66172;48.526;8.078;2023-07-24T05:48:49;12.40;;;5.18;;
77191;SDS011;66172;48.526;8.078;2023-07-24T05:51:15;11.43;;;5.10;;
77191;SDS011;66172;48.526;8.078;2023-07-24T05:53:41;11.93;;;5.25;;
77191;SDS011;66172;48.526;8.078;2023-07-24T05:56:07;14.70;;;5.13;;
77191;SDS011;66172;48.526;8.078;2023-07-24T05:58:33;13.33;;;5.23;;
77191;SDS011;66172;48.526;8.078;2023-07-24T06:00:59;11.43;;;5.18;;
77191;SDS011;66172;48.526;8.078;2023-07-24T06:03:25;12.70;;;5.07;;
77191;SDS011;66172;48.526;8.078;2023-07-24T06:05:52;15.02;;;5.07;;
77191;SDS011;66172;48.526;8.078;2023-07-24T06:08:19;15.30;;;5.67;;
77191;SDS011;66172;48.526;8.078;2023-07-24T06:10:46;13.40;;;5.25;;
77191;SDS011;66172;48.526;8.078;2023-07-24T06:13:15;12.48;;;5.28;;
77191;SDS011;66172;48.526;8.078;2023-07-24T06:15:41;11.95;;;5.22;;
77191;SDS011;66172;48.526;8.078;2023-07-24T06:18:08;12.80;;;5.13;;
77191;SDS011;66172;48.526;8.078;2023-07-24T06:20:34;15.57;;;5.83;;
77191;SDS011;66172;48.526;8.078;2023-07-24T06:23:00;13.88;;;5.60;;
77191;SDS011;66172;48.526;8.078;2023-07-24T06:25:26;14.45;;;5.40;;
77191;SDS011;66172;48.526;8.078;2023-07-24T06:27:51;13.33;;;5.70;;
77191;SDS011;66172;48.526;8.078;2023-07-24T06:30:17;10.80;;;4.93;;
77191;SDS011;66172;48.526;8.078;2023-07-24T06:32:43;13.70;;;5.28;;
77191;SDS011;66172;48.526;8.078;2023-07-24T06:35:09;13.90;;;5.43;;
77191;SDS011;66172;48.526;8.078;2023-07-24T06:37:35;11.97;;;5.17;;
77191;SDS011;66172;48.526;8.078;2023-07-24T06:40:01;13.27;;;5.40;;
77191;SDS011;66172;48.526;8.078;2023-07-24T06:42:27;12.80;;;5.88;;
77191;SDS011;66172;48.526;8.078;2023-07-24T06:44:53;16.43;;;6.30;;
77191;SDS011;66172;48.526;8.078;2023-07-24T06:47:18;12.05;;;5.47;;
77191;SDS011;66172;48.526;8.078;2023-07-24T06:49:44;11.30;;;5.40;;
77191;SDS011;66172;48.526;8.078;2023-07-24T06:52:10;15.05;;;5.63;;
77191;SDS011;66172;48.526;8.078;2023-07-24T06:54:36;13.83;;;5.40;;
77191;SDS011;66172;48.526;8.078;2023-07-24T06:57:02;14.48;;;5.57;;
77191;SDS011;66172;48.526;8.078;2023-07-24T06:59:28;12.48;;;5.65;;
77191;SDS011;66172;48.526;8.078;2023-07-24T07:01:54;11.27;;;4.73;;
77191;SDS011;66172;48.526;8.078;2023-07-24T07:04:20;10.35;;;4.60;;
77191;SDS011;66172;48.526;8.078;2023-07-24T07:06:46;11.65;;;5.18;;
77191;SDS011;66172;48.526;8.078;2023-07-24T07:09:11;10.30;;;4.53;;
77191;SDS011;66172;48.526;8.078;2023-07-24T07:11:37;11.53;;;4.47;;
77191;SDS011;66172;48.526;8.078;2023-07-24T07:14:04;11.30;;;4.57;;
77191;SDS011;66172;48.526;8.078;2023-07-24T07:16:30;14.32;;;4.75;;
77191;SDS011;66172;48.526;8.078;2023-07-24T07:18:56;15.18;;;4.82;;
77191;SDS011;66172;48.526;8.078;2023-07-24T07:21:22;13.43;;;4.97;;
77191;SDS011;66172;48.526;8.078;2023-07-24T07:23:48;11.60;;;5.03;;
77191;SDS011;66172;48.526;8.078;2023-07-24T07:26:13;15.13;;;5.40;;
77191;SDS011;66172;48.526;8.078;2023-07-24T07:28:39;12.00;;;4.70;;
77191;SDS011;66172;48.526;8.078;2023-07-24T07:31:05;12.70;;;5.07;;
77191;SDS011;66172;48.526;8.078;2023-07-24T07:33:31;12.52;;;5.53;;
77191;SDS011;66172;48.526;8.078;2023-07-24T07:35:57;12.67;;;5.40;;
77191;SDS011;66172;48.526;8.078;2023-07-24T07:38:23;13.40;;;5.32;;
77191;SDS011;66172;48.526;8.078;2023-07-24T07:40:49;13.70;;;4.90;;
77191;SDS011;66172;48.526;8.078;2023-07-24T07:43:15;14.32;;;4.75;;
77191;SDS011;66172;48.526;8.078;2023-07-24T07:45:41;14.73;;;5.17;;
77191;SDS011;66172;48.526;8.078;2023-07-24T07:48:07;11.13;;;4.95;;
77191;SDS011;66172;48.526;8.078;2023-07-24T07:50:33;15.88;;;5.20;;
77191;SDS011;66172;48.526;8.078;2023-07-24T07:52:59;12.93;;;5.30;;
77191;SDS011;66172;48.526;8.078;2023-07-24T07:55:25;9.98;;;4.63;;
77191;SDS011;66172;48.526;8.078;2023-07-24T07:57:51;12.52;;;4.72;;
77191;SDS011;66172;48.526;8.078;2023-07-24T08:00:17;11.80;;;4.85;;
77191;SDS011;66172;48.526;8.078;2023-07-24T08:02:43;11.37;;;5.00;;
77191;SDS011;66172;48.526;8.078;2023-07-24T08:05:10;11.23;;;5.05;;
77191;SDS011;66172;48.526;8.078;2023-07-24T08:07:36;10.98;;;5.28;;
77191;SDS011;66172;48.526;8.078;2023-07-24T08:10:02;11.73;;;5.25;;
77191;SDS011;66172;48.526;8.078;2023-07-24T08:12:28;11.65;;;5.22;;
77191;SDS011;66172;48.526;8.078;2023-07-24T08:14:55;12.37;;;5.10;;
77191;SDS011;66172;48.526;8.078;2023-07-24T08:17:21;11.55;;;5.43;;
77191;SDS011;66172;48.526;8.078;2023-07-24T08:19:47;10.02;;;4.95;;
77191;SDS011;66172;48.526;8.078;2023-07-24T08:22:13;10.73;;;4.95;;
77191;SDS011;66172;48.526;8.078;2023-07-24T08:24:39;11.87;;;5.07;;
77191;SDS011;66172;48.526;8.078;2023-07-24T08:27:05;11.52;;;5.20;;
77191;SDS011;66172;48.526;8.078;2023-07-24T08:29:31;12.65;;;4.85;;
77191;SDS011;66172;48.526;8.078;2023-07-24T08:31:57;13.83;;;5.20;;
77191;SDS011;66172;48.526;8.078;2023-07-24T08:34:23;12.02;;;5.20;;
77191;SDS011;66172;48.526;8.078;2023-07-24T08:36:49;11.73;;;5.07;;
77191;SDS011;66172;48.526;8.078;2023-07-24T08:39:14;9.07;;;4.47;;
77191;SDS011;66172;48.526;8.078;2023-07-24T08:41:40;10.17;;;4.90;;
77191;SDS011;66172;48.526;8.078;2023-07-24T08:44:07;11.68;;;4.40;;
77191;SDS011;66172;48.526;8.078;2023-07-24T08:46:36;13.05;;;5.15;;
77191;SDS011;66172;48.526;8.078;2023-07-24T08:49:04;9.52;;;4.50;;
77191;SDS011;66172;48.526;8.078;2023-07-24T08:51:31;13.23;;;5.00;;
77191;SDS011;66172;48.526;8.078;2023-07-24T08:53:58;15.20;;;5.40;;
77191;SDS011;66172;48.526;8.078;2023-07-24T08:56:26;13.07;;;5.05;;
77191;SDS011;66172;48.526;8.078;2023-07-24T08:58:52;11.80;;;5.05;;
77191;SDS011;66172;48.526;8.078;2023-07-24T09:01:18;12.17;;;4.70;;
77191;SDS011;66172;48.526;8.078;2023-07-24T09:03:44;12.40;;;4.95;;
77191;SDS011;66172;48.526;8.078;2023-07-24T09:06:10;11.73;;;5.15;;
77191;SDS011;66172;48.526;8.078;2023-07-24T09:08:37;11.45;;;4.70;;
77191;SDS011;66172;48.526;8.078;2023-07-24T09:11:05;9.40;;;4.63;;
77191;SDS011;66172;48.526;8.078;2023-07-24T09:13:32;10.43;;;4.82;;
77191;SDS011;66172;48.526;8.078;2023-07-24T09:15:59;9.07;;;4.70;;
77191;SDS011;66172;48.526;8.078;2023-07-24T09:18:25;10.27;;;4.93;;
77191;SDS011;66172;48.526;8.078;2023-07-24T09:20:51;10.87;;;4.90;;
77191;SDS011;66172;48.526;8.078;2023-07-24T09:23:24;9.70;;;4.75;;
77191;SDS011;66172;48.526;8.078;2023-07-24T09:25:52;11.57;;;5.03;;
77191;SDS011;66172;48.526;8.078;2023-07-24T09:28:19;10.80;;;5.05;;
77191;SDS011;66172;48.526;8.078;2023-07-24T09:30:56;12.85;;;5.07;;
77191;SDS011;66172;48.526;8.078;2023-07-24T09:33:33;11.23;;;4.60;;
77191;SDS011;66172;48.526;8.078;2023-07-24T09:36:00;10.88;;;5.07;;
77191;SDS011;66172;48.526;8.078;2023-07-24T09:38:27;10.27;;;5.03;;
77191;SDS011;66172;48.526;8.078;2023-07-24T09:40:53;10.50;;;4.72;;
77191;SDS011;66172;48.526;8.078;2023-07-24T09:43:22;10.87;;;5.03;;
77191;SDS011;66172;48.526;8.078;2023-07-24T09:45:50;11.73;;;4.70;;
77191;SDS011;66172;48.526;8.078;2023-07-24T09:48:17;10.00;;;4.93;;
77191;SDS011;66172;48.526;8.078;2023-07-24T09:50:46;10.18;;;4.15;;
77191;SDS011;66172;48.526;8.078;2023-07-24T09:55:59;9.93;;;4.00;;
77191;SDS011;66172;48.526;8.078;2023-07-24T09:58:26;10.30;;;4.50;;
77191;SDS011;66172;48.526;8.078;2023-07-24T10:00:53;9.25;;;4.10;;
77191;SDS011;66172;48.526;8.078;2023-07-24T10:03:19;10.50;;;4.15;;
77191;SDS011;66172;48.526;8.078;2023-07-24T10:05:47;9.63;;;4.13;;
77191;SDS011;66172;48.526;8.078;2023-07-24T10:08:14;11.47;;;4.53;;
77191;SDS011;66172;48.526;8.078;2023-07-24T10:10:41;11.10;;;4.18;;
77191;SDS011;66172;48.526;8.078;2023-07-24T10:13:07;10.82;;;4.28;;
77191;SDS011;66172;48.526;8.078;2023-07-24T10:15:36;11.82;;;4.45;;
77191;SDS011;66172;48.526;8.078;2023-07-24T10:18:04;10.73;;;4.35;;
77191;SDS011;66172;48.526;8.078;2023-07-24T10:20:35;9.30;;;4.17;;
77191;SDS011;66172;48.526;8.078;2023-07-24T10:23:02;10.00;;;4.32;;
77191;SDS011;66172;48.526;8.078;2023-07-24T10:25:29;9.68;;;4.03;;
77191;SDS011;66172;48.526;8.078;2023-07-24T10:28:03;9.73;;;4.80;;
77191;SDS011;66172;48.526;8.078;2023-07-24T10:30:35;9.43;;;4.38;;
77191;SDS011;66172;48.526;8.078;2023-07-24T10:33:12;11.33;;;4.43;;
77191;SDS011;66172;48.526;8.078;2023-07-24T10:35:46;12.40;;;5.00;;
77191;SDS011;66172;48.526;8.078;2023-07-24T10:38:35;9.93;;;4.25;;
77191;SDS011;66172;48.526;8.078;2023-07-24T10:41:12;10.00;;;4.20;;
77191;SDS011;66172;48.526;8.078;2023-07-24T10:43:42;11.73;;;4.82;;
77191;SDS011;66172;48.526;8.078;2023-07-24T10:46:12;9.67;;;4.10;;
77191;SDS011;66172;48.526;8.078;2023-07-24T10:48:42;10.23;;;4.03;;
77191;SDS011;66172;48.526;8.078;2023-07-24T10:51:17;12.10;;;4.43;;
77191;SDS011;66172;48.526;8.078;2023-07-24T10:53:49;10.35;;;4.07;;
77191;SDS011;66172;48.526;8.078;2023-07-24T10:56:15;11.15;;;3.92;;
77191;SDS011;66172;48.526;8.078;2023-07-24T10:58:42;12.03;;;4.40;;
77191;SDS011;66172;48.526;8.078;2023-07-24T11:01:08;9.77;;;3.90;;
77191;SDS011;66172;48.526;8.078;2023-07-24T11:03:36;10.15;;;4.00;;
77191;SDS011;66172;48.526;8.078;2023-07-24T11:06:16;10.60;;;4.25;;
77191;SDS011;66172;48.526;8.078;2023-07-24T11:08:57;11.68;;;4.55;;
77191;SDS011;66172;48.526;8.078;2023-07-24T11:11:28;9.07;;;4.27;;
77191;SDS011;66172;48.526;8.078;2023-07-24T11:13:57;10.63;;;4.40;;
77191;SDS011;66172;48.526;8.078;2023-07-24T11:16:23;9.90;;;4.40;;
77191;SDS011;66172;48.526;8.078;2023-07-24T11:18:50;10.07;;;4.10;;
77191;SDS011;66172;48.526;8.078;2023-07-24T11:21:17;8.90;;;4.35;;
77191;SDS011;66172;48.526;8.078;2023-07-24T11:23:44;8.37;;;3.97;;
77191;SDS011;66172;48.526;8.078;2023-07-24T11:26:11;9.38;;;4.00;;
77191;SDS011;66172;48.526;8.078;2023-07-24T11:28:40;8.30;;;3.83;;
77191;SDS011;66172;48.526;8.078;2023-07-24T11:31:06;8.73;;;3.90;;
77191;SDS011;66172;48.526;8.078;2023-07-24T11:33:32;8.73;;;4.10;;
77191;SDS011;66172;48.526;8.078;2023-07-24T11:35:58;9.75;;;4.07;;
77191;SDS011;66172;48.526;8.078;2023-07-24T11:38:24;7.60;;;4.00;;
77191;SDS011;66172;48.526;8.078;2023-07-24T11:40:50;8.02;;;3.80;;
77191;SDS011;66172;48.526;8.078;2023-07-24T11:43:21;9.10;;;4.35;;
77191;SDS011;66172;48.526;8.078;2023-07-24T11:45:49;9.87;;;4.37;;
77191;SDS011;66172;48.526;8.078;2023-07-24T11:48:19;8.82;;;3.92;;
77191;SDS011;66172;48.526;8.078;2023-07-24T11:50:53;9.63;;;4.50;;
77191;SDS011;66172;48.526;8.078;2023-07-24T11:53:21;14.38;;;4.43;;
77191;SDS011;66172;48.526;8.078;2023-07-24T11:55:49;16.73;;;4.93;;
77191;SDS011;66172;48.526;8.078;2023-07-24T11:58:16;10.33;;;3.80;;
77191;SDS011;66172;48.526;8.078;2023-07-24T12:00:43;10.85;;;4.40;;
77191;SDS011;66172;48.526;8.078;2023-07-24T12:03:11;7.90;;;3.70;;
77191;SDS011;66172;48.526;8.078;2023-07-24T12:05:38;8.80;;;4.18;;
77191;SDS011;66172;48.526;8.078;2023-07-24T12:08:04;9.30;;;4.50;;
77191;SDS011;66172;48.526;8.078;2023-07-24T12:10:30;9.45;;;3.85;;
77191;SDS011;66172;48.526;8.078;2023-07-24T12:12:58;10.60;;;4.43;;
77191;SDS011;66172;48.526;8.078;2023-07-24T12:15:25;8.23;;;3.85;;
77191;SDS011;66172;48.526;8.078;2023-07-24T12:17:52;10.65;;;4.10;;
77191;SDS011;66172;48.526;8.078;2023-07-24T12:20:18;9.03;;;3.90;;
77191;SDS011;66172;48.526;8.078;2023-07-24T12:22:44;8.95;;;3.53;;
77191;SDS011;66172;48.526;8.078;2023-07-24T12:25:10;8.20;;;4.13;;
77191;SDS011;66172;48.526;8.078;2023-07-24T12:27:36;9.27;;;3.85;;
77191;SDS011;66172;48.526;8.078;2023-07-24T12:30:03;8.23;;;3.43;;
77191;SDS011;66172;48.526;8.078;2023-07-24T12:32:29;9.00;;;3.80;;
77191;SDS011;66172;48.526;8.078;2023-07-24T12:34:55;8.27;;;3.90;;
77191;SDS011;66172;48.526;8.078;2023-07-24T12:37:20;9.73;;;3.78;;
77191;SDS011;66172;48.526;8.078;2023-07-24T12:39:47;8.57;;;3.67;;
77191;SDS011;66172;48.526;8.078;2023-07-24T12:42:14;8.02;;;3.67;;
77191;SDS011;66172;48.526;8.078;2023-07-24T12:44:40;7.88;;;3.58;;
77191;SDS011;66172;48.526;8.078;2023-07-24T12:47:07;8.05;;;3.50;;
77191;SDS011;66172;48.526;8.078;2023-07-24T12:49:33;8.63;;;3.87;;
77191;SDS011;66172;48.526;8.078;2023-07-24T12:51:59;8.98;;;4.03;;
77191;SDS011;66172;48.526;8.078;2023-07-24T12:54:25;9.10;;;3.50;;
77191;SDS011;66172;48.526;8.078;2023-07-24T12:56:51;8.02;;;3.50;;
77191;SDS011;66172;48.526;8.078;2023-07-24T12:59:17;8.97;;;3.73;;
77191;SDS011;66172;48.526;8.078;2023-07-24T13:01:44;9.25;;;4.15;;
77191;SDS011;66172;48.526;8.078;2023-07-24T13:04:10;8.18;;;3.70;;
77191;SDS011;66172;48.526;8.078;2023-07-24T13:06:36;9.23;;;3.90;;
77191;SDS011;66172;48.526;8.078;2023-07-24T13:09:02;8.10;;;3.60;;
77191;SDS011;66172;48.526;8.078;2023-07-24T13:11:28;8.75;;;3.65;;
77191;SDS011;66172;48.526;8.078;2023-07-24T13:13:55;8.30;;;3.45;;
77191;SDS011;66172;48.526;8.078;2023-07-24T13:16:21;8.40;;;3.47;;
77191;SDS011;66172;48.526;8.078;2023-07-24T13:18:47;7.30;;;3.13;;
77191;SDS011;66172;48.526;8.078;2023-07-24T13:21:13;7.63;;;3.47;;
77191;SDS011;66172;48.526;8.078;2023-07-24T13:23:40;8.45;;;3.42;;
77191;SDS011;66172;48.526;8.078;2023-07-24T13:26:06;8.20;;;3.40;;
77191;SDS011;66172;48.526;8.078;2023-07-24T13:28:36;6.95;;;2.97;;
77191;SDS011;66172;48.526;8.078;2023-07-24T13:31:12;10.75;;;3.65;;
77191;SDS011;66172;48.526;8.078;2023-07-24T13:33:42;7.10;;;3.27;;
77191;SDS011;66172;48.526;8.078;2023-07-24T13:36:08;7.50;;;3.60;;
77191;SDS011;66172;48.526;8.078;2023-07-24T13:38:34;7.15;;;3.45;;
77191;SDS011;66172;48.526;8.078;2023-07-24T13:41:00;8.13;;;3.28;;
77191;SDS011;66172;48.526;8.078;2023-07-24T13:43:27;8.43;;;3.77;;
77191;SDS011;66172;48.526;8.078;2023-07-24T13:45:53;7.20;;;3.35;;
77191;SDS011;66172;48.526;8.078;2023-07-24T13:48:19;7.88;;;3.70;;
77191;SDS011;66172;48.526;8.078;2023-07-24T13:50:45;9.05;;;3.53;;
77191;SDS011;66172;48.526;8.078;2023-07-24T13:53:11;8.90;;;3.33;;
77191;SDS011;66172;48.526;8.078;2023-07-24T13:55:37;7.10;;;3.27;;
77191;SDS011;66172;48.526;8.078;2023-07-24T13:58:03;8.13;;;3.90;;
77191;SDS011;66172;48.526;8.078;2023-07-24T14:00:29;6.28;;;3.03;;
77191;SDS011;66172;48.526;8.078;2023-07-24T14:02:55;7.18;;;3.35;;
77191;SDS011;66172;48.526;8.078;2023-07-24T14:05:21;8.27;;;3.30;;
77191;SDS011;66172;48.526;8.078;2023-07-24T14:07:47;7.13;;;2.90;;
77191;SDS011;66172;48.526;8.078;2023-07-24T14:10:13;7.82;;;3.30;;
77191;SDS011;66172;48.526;8.078;2023-07-24T14:12:39;7.30;;;3.20;;
77191;SDS011;66172;48.526;8.078;2023-07-24T14:15:05;7.90;;;3.27;;
77191;SDS011;66172;48.526;8.078;2023-07-24T14:17:31;6.88;;;3.03;;
77191;SDS011;66172;48.526;8.078;2023-07-24T14:19:57;7.20;;;3.00;;
77191;SDS011;66172;48.526;8.078;2023-07-24T14:22:23;6.45;;;2.90;;
77191;SDS011;66172;48.526;8.078;2023-07-24T14:24:49;7.27;;;3.27;;
77191;SDS011;66172;48.526;8.078;2023-07-24T14:27:14;5.80;;;2.80;;
77191;SDS011;66172;48.526;8.078;2023-07-24T14:29:40;7.72;;;2.97;;
77191;SDS011;66172;48.526;8.078;2023-07-24T14:32:06;7.43;;;3.50;;
77191;SDS011;66172;48.526;8.078;2023-07-24T14:34:32;9.40;;;2.80;;
77191;SDS011;66172;48.526;8.078;2023-07-24T14:36:59;6.95;;;2.88;;
77191;SDS011;66172;48.526;8.078;2023-07-24T14:39:25;7.25;;;3.08;;